Gabriel — WDI8678 — position and weather

sailwx.info

Track history (hours):
 
Tides and Currents Weather Stations Pressure Air Temp Water Temp Dewpoint Dewpoint Depression Visibility Wind Speed Wind Dir Waves Ship Positions

Gabriel

Owner: Jernstadt, Robert L, Spring Lake, MI. More information available from US FCC via Universal Licensing System and Coast Guard Vessel Documentation Center.

Last reported at 2018-Apr-22 14:57 UTC. Time now 2018-Apr-25 06:56 UTC.
Position N 26°11' W 080°06'.

Length 10 m.

Type: Sailing vessel. MMSI: 367741050.

Date/timePositionNaut miles runAvg speedWind from/ knotsBaromVisibWave heightAir tempDewpointWater temp
2018-Apr-22 14:57N 26°11' W 080°06'2 2.3
2018-Apr-22 14:17N 26°09' W 080°06'1 4.1
2018-Apr-22 13:58N 26°08' W 080°07'1 0.1
2018-Apr-21 21:27N 26°07' W 080°07'1 2.8
2018-Apr-21 21:01N 26°06' W 080°07'3 5.2
2018-Apr-21 20:31N 26°03' W 080°07'3 5.6
2018-Apr-21 19:57N 26°00' W 080°07'1 2.6
2018-Apr-21 19:29N 25°59' W 080°07'2 4.4
2018-Apr-21 19:00N 25°57' W 080°08'1 2.2
2018-Apr-21 18:29N 25°56' W 080°08'2 3.3
2018-Apr-21 17:59N 25°54' W 080°08'1 2.2
2018-Apr-21 17:27N 25°53' W 080°09'2 3.9
2018-Apr-21 17:00N 25°52' W 080°10'2 4.9
2018-Apr-21 16:30N 25°49' W 080°10'2 3.6
2018-Apr-21 16:00N 25°47' W 080°11'0 0.2
2018-Apr-21 15:27N 25°48' W 080°11'1 1.8
2018-Apr-21 14:59N 25°47' W 080°11'2 4.6
2018-Apr-21 14:30N 25°44' W 080°11'3 5.0
2018-Apr-21 14:00N 25°42' W 080°11'2 0.1
2018-Apr-20 21:20N 25°41' W 080°10'0 0.4
2018-Apr-20 20:44N 25°40' W 080°10'1 3.1
2018-Apr-20 20:28N 25°40' W 080°09'5 4.0
2018-Apr-20 19:19N 25°35' W 080°07'  
Track history (hours):
 
Tides and Currents Weather Stations Pressure Air Temp Water Temp Dewpoint Dewpoint Depression Visibility Wind Speed Wind Dir Waves Ship Positions

Gabriel

Owner: Jernstadt, Robert L, Spring Lake, MI. More information available from US FCC via Universal Licensing System and Coast Guard Vessel Documentation Center.

Last reported at 2018-Apr-22 14:57 UTC. Time now 2018-Apr-25 06:56 UTC.
Position N 26°11' W 080°06'.

Length 10 m.

Type: Sailing vessel. MMSI: 367741050.

Date/timePositionNaut miles runAvg speedWind from/ knotsBaromVisibWave heightAir tempDewpointWater temp
2018-Apr-22 14:57N 26°11' W 080°06'2 2.3
2018-Apr-22 14:17N 26°09' W 080°06'1 4.1
2018-Apr-22 13:58N 26°08' W 080°07'1 0.1
2018-Apr-21 21:27N 26°07' W 080°07'1 2.8
2018-Apr-21 21:01N 26°06' W 080°07'3 5.2
2018-Apr-21 20:31N 26°03' W 080°07'3 5.6
2018-Apr-21 19:57N 26°00' W 080°07'1 2.6
2018-Apr-21 19:29N 25°59' W 080°07'2 4.4
2018-Apr-21 19:00N 25°57' W 080°08'1 2.2
2018-Apr-21 18:29N 25°56' W 080°08'2 3.3
2018-Apr-21 17:59N 25°54' W 080°08'1 2.2
2018-Apr-21 17:27N 25°53' W 080°09'2 3.9
2018-Apr-21 17:00N 25°52' W 080°10'2 4.9
2018-Apr-21 16:30N 25°49' W 080°10'2 3.6
2018-Apr-21 16:00N 25°47' W 080°11'0 0.2
2018-Apr-21 15:27N 25°48' W 080°11'1 1.8
2018-Apr-21 14:59N 25°47' W 080°11'2 4.6
2018-Apr-21 14:30N 25°44' W 080°11'3 5.0
2018-Apr-21 14:00N 25°42' W 080°11'2 0.1
2018-Apr-20 21:20N 25°41' W 080°10'0 0.4
2018-Apr-20 20:44N 25°40' W 080°10'1 3.1
2018-Apr-20 20:28N 25°40' W 080°09'5 4.0
2018-Apr-20 19:19N 25°35' W 080°07'  

Dump ship's entire track history